createdAt,value
2022-12-27T00:00:15.737Z,5.40
2022-12-27T00:03:04.980Z,3.80
2022-12-27T00:05:34.033Z,4.20
2022-12-27T00:08:03.152Z,4.00
2022-12-27T00:10:32.201Z,4.20
2022-12-27T00:13:01.158Z,3.50
2022-12-27T00:15:30.629Z,3.70
2022-12-27T00:17:59.703Z,4.10
2022-12-27T00:20:28.729Z,4.20
2022-12-27T00:23:01.521Z,3.30
2022-12-27T00:25:30.657Z,3.60
2022-12-27T00:27:59.654Z,4.10
2022-12-27T00:30:28.640Z,4.00
2022-12-27T00:32:57.619Z,3.40
2022-12-27T00:35:26.687Z,3.40
2022-12-27T00:37:55.621Z,3.40
2022-12-27T00:40:24.612Z,3.90
2022-12-27T00:42:53.551Z,4.00
2022-12-27T00:45:22.671Z,4.30
2022-12-27T00:47:52.227Z,4.30
2022-12-27T00:50:21.266Z,4.30
2022-12-27T00:52:50.327Z,3.30
2022-12-27T00:55:19.665Z,3.90
2022-12-27T00:57:48.721Z,3.10
2022-12-27T01:00:17.914Z,2.70
2022-12-27T01:02:47.715Z,3.10
2022-12-27T01:05:16.997Z,3.10
2022-12-27T01:07:46.778Z,3.40
2022-12-27T01:10:16.144Z,3.50
2022-12-27T01:12:45.160Z,3.20
2022-12-27T01:15:14.264Z,3.70
2022-12-27T01:17:43.252Z,3.10
2022-12-27T01:20:14.610Z,3.20
2022-12-27T01:22:43.657Z,3.00
2022-12-27T01:25:12.717Z,2.80
2022-12-27T01:27:41.736Z,2.70
2022-12-27T01:30:12.138Z,3.10
2022-12-27T01:32:41.141Z,2.60
2022-12-27T01:35:10.217Z,2.90
2022-12-27T01:37:39.248Z,2.80
2022-12-27T01:40:09.647Z,2.70
2022-12-27T01:42:53.598Z,2.40
2022-12-27T01:45:28.825Z,2.40
2022-12-27T01:48:25.437Z,2.20
2022-12-27T01:51:04.409Z,1.90
2022-12-27T01:53:39.567Z,1.80
2022-12-27T01:56:19.623Z,1.60
2022-12-27T01:58:53.454Z,2.00
2022-12-27T02:01:28.205Z,1.40
2022-12-27T02:04:06.903Z,1.40
2022-12-27T02:06:38.429Z,1.40
2022-12-27T02:09:22.314Z,1.80
2022-12-27T02:11:57.107Z,1.30
2022-12-27T02:14:49.184Z,1.50
2022-12-27T02:17:28.051Z,1.60
2022-12-27T02:20:22.896Z,1.40
2022-12-27T02:23:53.859Z,1.70
2022-12-27T02:26:47.995Z,1.60
2022-12-27T02:29:54.918Z,2.20
2022-12-27T02:32:55.112Z,1.60
2022-12-27T02:35:31.515Z,1.40
2022-12-27T02:38:33.109Z,1.70
2022-12-27T02:41:25.729Z,2.30
2022-12-27T02:44:15.213Z,2.20
2022-12-27T02:47:03.764Z,2.00
2022-12-27T02:49:59.245Z,2.80
2022-12-27T02:52:49.667Z,2.40
2022-12-27T02:56:20.687Z,2.40
2022-12-27T02:59:59.329Z,2.40
2022-12-27T03:03:24.163Z,2.50
2022-12-27T03:06:27.062Z,3.40
2022-12-27T03:09:50.711Z,2.90
2022-12-27T03:12:59.191Z,2.10
2022-12-27T03:15:55.557Z,2.90
2022-12-27T03:18:44.487Z,3.10
2022-12-27T03:21:41.699Z,2.50
2022-12-27T03:24:31.081Z,2.60
2022-12-27T03:27:02.366Z,3.00
2022-12-27T03:29:50.288Z,3.80
2022-12-27T03:32:40.602Z,3.30
2022-12-27T03:35:21.432Z,2.80
2022-12-27T03:38:04.077Z,3.50
2022-12-27T03:41:19.620Z,2.90
2022-12-27T03:43:50.725Z,2.50
2022-12-27T03:46:36.022Z,2.80
2022-12-27T03:49:31.363Z,2.40
2022-12-27T03:52:16.949Z,2.80
2022-12-27T03:54:49.852Z,3.10
2022-12-27T03:57:23.397Z,3.20
2022-12-27T03:59:53.291Z,3.50
2022-12-27T04:02:22.597Z,4.90
2022-12-27T04:04:52.781Z,4.00
2022-12-27T04:07:22.847Z,2.60
2022-12-27T04:10:10.201Z,3.70
2022-12-27T04:12:57.909Z,3.40
2022-12-27T04:15:45.354Z,3.90
2022-12-27T04:18:32.834Z,3.50
2022-12-27T04:21:20.227Z,3.60
2022-12-27T04:24:07.507Z,3.60
2022-12-27T04:26:54.830Z,4.10
2022-12-27T04:29:42.475Z,4.50
2022-12-27T04:32:36.099Z,4.50
2022-12-27T04:35:05.826Z,4.40
2022-12-27T04:37:34.789Z,4.40
2022-12-27T04:40:42.661Z,5.30
2022-12-27T04:43:30.444Z,5.20
2022-12-27T04:46:18.394Z,5.40
2022-12-27T04:49:05.835Z,5.10
2022-12-27T04:51:53.551Z,5.50
2022-12-27T04:54:43.116Z,4.90
2022-12-27T04:57:12.172Z,6.20
2022-12-27T04:59:59.812Z,4.80
2022-12-27T05:02:29.519Z,6.20
2022-12-27T05:04:59.010Z,5.30
2022-12-27T05:07:46.906Z,6.00
2022-12-27T05:10:34.852Z,4.70
2022-12-27T05:13:23.437Z,3.30
2022-12-27T05:15:52.454Z,3.60
2022-12-27T05:18:21.587Z,3.10
2022-12-27T05:20:50.917Z,6.00
2022-12-27T05:23:38.457Z,3.80
2022-12-27T05:26:07.538Z,11.60
2022-12-27T05:28:36.645Z,4.30
2022-12-27T05:31:05.602Z,3.80
2022-12-27T05:33:34.637Z,2.90
2022-12-27T05:36:03.731Z,3.70
2022-12-27T05:38:33.983Z,2.90
2022-12-27T05:41:04.137Z,3.70
2022-12-27T05:43:35.594Z,3.00
2022-12-27T05:46:11.354Z,3.10
2022-12-27T05:48:40.945Z,4.10
2022-12-27T05:51:29.013Z,5.50
2022-12-27T05:53:58.181Z,3.70
2022-12-27T05:56:27.238Z,2.70
2022-12-27T05:58:56.225Z,2.30
2022-12-27T06:01:25.703Z,4.20
2022-12-27T06:03:54.834Z,3.30
2022-12-27T06:06:23.806Z,3.70
2022-12-27T06:08:52.875Z,5.00
2022-12-27T06:11:21.906Z,5.30
2022-12-27T06:13:53.912Z,3.10
2022-12-27T06:18:53.251Z,3.40
2022-12-27T06:21:22.570Z,3.10
2022-12-27T06:23:51.635Z,3.50
2022-12-27T06:26:27.960Z,3.90
2022-12-27T06:28:58.767Z,3.80
2022-12-27T06:31:28.331Z,3.00
2022-12-27T06:33:57.718Z,3.50
2022-12-27T06:36:29.629Z,3.10
2022-12-27T06:38:59.931Z,3.40
2022-12-27T06:41:28.997Z,4.30
2022-12-27T06:43:58.552Z,4.00
2022-12-27T06:46:27.631Z,3.00
2022-12-27T06:48:57.367Z,3.00
2022-12-27T06:51:26.390Z,3.40
2022-12-27T06:53:55.576Z,3.00
2022-12-27T06:56:24.568Z,2.90
2022-12-27T06:58:54.639Z,3.30
2022-12-27T07:01:27.070Z,3.10
2022-12-27T07:04:00.178Z,2.80
2022-12-27T07:06:32.105Z,4.20
2022-12-27T07:09:01.914Z,3.70
2022-12-27T07:11:37.313Z,4.60
2022-12-27T07:14:09.730Z,4.20
2022-12-27T07:16:38.945Z,3.10
2022-12-27T07:19:10.368Z,4.40
2022-12-27T07:21:39.398Z,4.00
2022-12-27T07:24:08.662Z,4.60
2022-12-27T07:26:37.750Z,4.30
2022-12-27T07:29:06.784Z,4.10
2022-12-27T07:31:35.924Z,6.50
2022-12-27T07:34:04.979Z,6.00
2022-12-27T07:36:38.113Z,4.80
2022-12-27T07:39:08.586Z,3.90
2022-12-27T07:41:37.817Z,4.90
2022-12-27T07:44:07.048Z,5.50
2022-12-27T07:46:36.305Z,6.20
2022-12-27T07:49:05.389Z,6.80
2022-12-27T07:51:34.441Z,5.10
2022-12-27T07:54:04.056Z,4.30
2022-12-27T07:56:33.239Z,6.30
2022-12-27T07:59:02.901Z,8.10
2022-12-27T08:02:02.131Z,6.20
2022-12-27T08:04:34.778Z,5.60
2022-12-27T08:07:15.170Z,8.00
2022-12-27T08:09:47.221Z,6.70
2022-12-27T08:12:18.987Z,6.20
2022-12-27T08:14:48.037Z,8.50
2022-12-27T08:17:30.141Z,7.00
2022-12-27T08:19:59.181Z,11.10
2022-12-27T08:22:29.046Z,8.20
2022-12-27T08:24:58.058Z,8.40
2022-12-27T08:27:27.970Z,9.10
2022-12-27T08:29:57.050Z,9.10
2022-12-27T08:32:29.244Z,7.40
2022-12-27T08:37:48.896Z,10.10
2022-12-27T08:40:17.947Z,13.60
2022-12-27T08:42:47.226Z,12.20
2022-12-27T08:45:16.603Z,13.50
2022-12-27T08:47:45.871Z,13.80
2022-12-27T08:50:15.073Z,13.20
2022-12-27T08:52:44.283Z,9.10
2022-12-27T08:55:13.432Z,9.40
2022-12-27T08:57:42.598Z,9.80
2022-12-27T09:00:12.979Z,9.10
2022-12-27T09:02:43.979Z,9.50
2022-12-27T09:05:13.428Z,8.50
2022-12-27T09:07:42.480Z,7.40
2022-12-27T09:10:11.531Z,8.40
2022-12-27T09:12:40.758Z,7.80
2022-12-27T09:15:10.449Z,7.50
2022-12-27T09:17:40.401Z,20.10
2022-12-27T09:20:15.193Z,14.90
2022-12-27T09:22:44.324Z,11.00
2022-12-27T09:25:13.724Z,11.50
2022-12-27T09:27:42.910Z,9.90
2022-12-27T09:30:12.276Z,8.90
2022-12-27T09:32:41.293Z,8.90
2022-12-27T09:35:10.333Z,9.20
2022-12-27T09:37:39.345Z,9.20
2022-12-27T09:40:14.539Z,9.60
2022-12-27T09:43:19.089Z,7.50
2022-12-27T09:45:56.518Z,8.10
2022-12-27T09:48:36.937Z,7.50
2022-12-27T09:51:22.490Z,8.70
2022-12-27T09:54:13.054Z,8.70
2022-12-27T09:57:10.009Z,8.90
2022-12-27T09:59:43.392Z,8.00
2022-12-27T10:02:23.489Z,8.90
2022-12-27T10:10:57.324Z,8.30
2022-12-27T10:13:41.363Z,7.20
2022-12-27T10:17:03.763Z,8.50
2022-12-27T10:20:22.697Z,7.80
2022-12-27T10:23:17.515Z,12.70
2022-12-27T10:25:47.678Z,10.20
2022-12-27T10:28:25.718Z,8.00
2022-12-27T10:30:55.750Z,10.20
2022-12-27T10:33:31.380Z,10.70
2022-12-27T10:36:16.552Z,7.60
2022-12-27T10:38:45.848Z,9.20
2022-12-27T10:42:14.462Z,9.60
2022-12-27T10:44:44.805Z,12.60
2022-12-27T10:47:14.034Z,19.60
2022-12-27T10:50:09.247Z,14.90
2022-12-27T10:52:38.723Z,14.00
2022-12-27T10:55:41.140Z,10.70
2022-12-27T10:58:31.447Z,11.80
2022-12-27T11:01:00.645Z,6.80
2022-12-27T11:03:32.104Z,8.70
2022-12-27T11:06:26.290Z,7.90
2022-12-27T11:08:55.370Z,13.60
2022-12-27T11:11:27.470Z,12.10
2022-12-27T11:14:11.969Z,16.30
2022-12-27T11:16:41.878Z,13.70
2022-12-27T11:19:25.030Z,13.30
2022-12-27T11:21:55.573Z,10.70
2022-12-27T11:24:24.694Z,11.60
2022-12-27T11:26:59.316Z,18.90
2022-12-27T11:29:32.281Z,10.60
2022-12-27T11:32:08.562Z,9.10
2022-12-27T11:34:43.346Z,10.40
2022-12-27T11:37:17.185Z,9.60
2022-12-27T11:39:49.720Z,8.30
2022-12-27T11:42:44.864Z,7.40
2022-12-27T11:45:34.431Z,7.20
2022-12-27T11:48:26.015Z,7.40
2022-12-27T11:51:46.738Z,8.50
2022-12-27T11:54:37.426Z,8.10
2022-12-27T11:57:21.168Z,6.70
2022-12-27T12:00:22.178Z,6.50
2022-12-27T12:03:39.787Z,5.80
2022-12-27T12:06:34.413Z,6.60
2022-12-27T12:09:28.309Z,9.30
2022-12-27T12:12:03.257Z,10.90
2022-12-27T12:14:50.291Z,7.20
2022-12-27T12:17:40.327Z,7.50
2022-12-27T12:20:21.001Z,12.20
2022-12-27T12:23:40.436Z,11.00
2022-12-27T12:26:21.952Z,14.70
2022-12-27T12:29:18.822Z,9.40
2022-12-27T12:32:15.456Z,8.30
2022-12-27T12:35:16.750Z,8.20
2022-12-27T12:38:33.040Z,15.80
2022-12-27T12:41:14.755Z,9.70
2022-12-27T12:43:49.730Z,8.10
2022-12-27T12:47:01.399Z,11.70
2022-12-27T12:49:55.340Z,7.00
2022-12-27T12:53:04.050Z,6.10
2022-12-27T12:56:00.098Z,7.00
2022-12-27T12:58:38.170Z,7.70
2022-12-27T13:02:00.800Z,6.20
2022-12-27T13:07:44.236Z,6.50
2022-12-27T13:10:37.883Z,5.90
2022-12-27T13:13:20.850Z,7.70
2022-12-27T13:15:59.185Z,7.20
2022-12-27T13:19:06.414Z,7.60
2022-12-27T13:22:24.563Z,5.90
2022-12-27T13:25:22.034Z,5.00
2022-12-27T13:28:23.858Z,4.70
2022-12-27T13:31:26.954Z,7.10
2022-12-27T13:34:20.593Z,8.50
2022-12-27T13:37:21.102Z,7.40
2022-12-27T13:40:29.815Z,7.30
2022-12-27T13:43:27.125Z,17.60
2022-12-27T13:46:42.632Z,11.40
2022-12-27T13:49:37.114Z,7.00
2022-12-27T13:52:28.711Z,6.80
2022-12-27T13:55:36.220Z,5.60
2022-12-27T13:58:35.673Z,6.20
2022-12-27T14:01:29.783Z,8.40
2022-12-27T14:04:23.891Z,8.10
2022-12-27T14:07:37.110Z,7.30
2022-12-27T14:10:37.040Z,7.40
2022-12-27T14:13:10.963Z,10.60
2022-12-27T14:15:42.805Z,10.50
2022-12-27T14:18:39.784Z,9.00
2022-12-27T14:21:24.012Z,8.70
2022-12-27T14:24:01.825Z,8.80
2022-12-27T14:26:46.157Z,9.50
2022-12-27T14:29:56.705Z,8.90
2022-12-27T14:33:06.033Z,8.90
2022-12-27T14:36:35.597Z,6.70
2022-12-27T14:40:00.918Z,8.60
2022-12-27T14:43:13.979Z,10.20
2022-12-27T14:46:34.767Z,9.60
2022-12-27T14:49:34.828Z,9.20
2022-12-27T14:52:38.510Z,7.70
2022-12-27T14:55:34.901Z,6.30
2022-12-27T14:58:28.400Z,10.40
2022-12-27T15:01:16.468Z,9.50
2022-12-27T15:04:22.046Z,6.70
2022-12-27T15:07:00.110Z,7.40
2022-12-27T15:10:02.305Z,8.40
2022-12-27T15:13:12.861Z,14.50
2022-12-27T15:16:23.102Z,9.60
2022-12-27T15:19:21.045Z,10.30
2022-12-27T15:22:17.149Z,9.60
2022-12-27T15:25:32.683Z,13.50
2022-12-27T15:28:22.475Z,12.10
2022-12-27T15:31:26.225Z,8.10
2022-12-27T15:34:16.291Z,8.30
2022-12-27T15:36:49.363Z,7.10
2022-12-27T15:39:33.702Z,6.90
2022-12-27T15:42:38.783Z,6.70
2022-12-27T15:45:37.794Z,7.60
2022-12-27T15:48:25.106Z,16.10
2022-12-27T15:51:20.392Z,49.40
2022-12-27T15:54:24.901Z,23.10
2022-12-27T15:57:17.382Z,13.20
2022-12-27T16:02:29.366Z,20.30
2022-12-27T16:05:03.023Z,17.40
2022-12-27T16:07:45.749Z,16.50
2022-12-27T16:10:32.768Z,20.90
2022-12-27T16:13:39.350Z,18.00
2022-12-27T16:16:40.215Z,13.70
2022-12-27T16:19:42.111Z,13.70
2022-12-27T16:22:39.889Z,19.10
2022-12-27T16:25:41.006Z,23.40
2022-12-27T16:28:15.847Z,19.10
2022-12-27T16:30:49.551Z,15.50
2022-12-27T16:33:27.455Z,19.60
2022-12-27T16:36:16.512Z,20.80
2022-12-27T16:39:14.270Z,20.90
2022-12-27T16:41:55.305Z,23.10
2022-12-27T16:44:44.569Z,23.40
2022-12-27T16:47:40.685Z,22.30
2022-12-27T16:50:47.375Z,19.80
2022-12-27T16:53:21.999Z,17.80
2022-12-27T16:56:22.432Z,18.20
2022-12-27T16:58:52.086Z,19.90
2022-12-27T17:01:50.279Z,17.80
2022-12-27T17:04:54.625Z,22.10
2022-12-27T17:07:42.259Z,22.70
2022-12-27T17:10:35.026Z,18.30
2022-12-27T17:13:48.311Z,18.10
2022-12-27T17:16:24.679Z,16.10
2022-12-27T17:19:02.782Z,15.70
2022-12-27T17:21:36.407Z,20.90
2022-12-27T17:24:18.972Z,21.00
2022-12-27T17:27:12.905Z,17.70
2022-12-27T17:30:12.602Z,12.00
2022-12-27T17:33:05.824Z,21.00
2022-12-27T17:35:55.952Z,22.20
2022-12-27T17:38:55.419Z,16.10
2022-12-27T17:41:47.080Z,15.20
2022-12-27T17:44:40.383Z,13.90
2022-12-27T17:47:56.405Z,15.20
2022-12-27T17:50:30.887Z,15.70
2022-12-27T17:53:43.581Z,16.50
2022-12-27T17:56:41.977Z,16.20
2022-12-27T17:59:13.991Z,17.90
2022-12-27T18:01:49.266Z,23.40
2022-12-27T18:04:53.021Z,17.20
2022-12-27T18:07:29.923Z,11.70
2022-12-27T18:10:27.126Z,13.10
2022-12-27T18:13:03.197Z,14.00
2022-12-27T18:15:36.661Z,16.90
2022-12-27T18:18:08.584Z,15.50
2022-12-27T18:20:40.615Z,15.10
2022-12-27T18:23:10.528Z,15.20
2022-12-27T18:25:45.378Z,12.70
2022-12-27T18:28:28.671Z,14.40
2022-12-27T18:31:19.859Z,17.20
2022-12-27T18:34:25.403Z,13.80
2022-12-27T18:37:09.377Z,23.30
2022-12-27T18:40:04.955Z,22.90
2022-12-27T18:42:49.297Z,15.20
2022-12-27T18:45:29.910Z,17.00
2022-12-27T18:48:04.639Z,17.30
2022-12-27T18:50:35.220Z,17.90
2022-12-27T18:53:07.200Z,18.90
2022-12-27T18:55:37.083Z,14.80
2022-12-27T18:58:20.429Z,17.80
2022-12-27T19:01:02.860Z,18.50
2022-12-27T19:03:38.234Z,18.50
2022-12-27T19:06:13.171Z,23.50
2022-12-27T19:08:51.044Z,26.00
2022-12-27T19:11:34.568Z,17.80
2022-12-27T19:14:05.814Z,21.00
2022-12-27T19:16:36.824Z,20.30
2022-12-27T19:19:20.863Z,18.10
2022-12-27T19:21:50.249Z,14.60
2022-12-27T19:24:32.785Z,15.70
2022-12-27T19:27:16.680Z,15.00
2022-12-27T19:29:51.807Z,14.80
2022-12-27T19:32:33.477Z,14.40
2022-12-27T19:35:04.555Z,15.50
2022-12-27T19:37:33.797Z,13.90
2022-12-27T19:40:03.862Z,12.80
2022-12-27T19:42:35.357Z,16.50
2022-12-27T19:45:04.890Z,21.10
2022-12-27T19:47:35.999Z,17.00
2022-12-27T19:50:05.355Z,17.60
2022-12-27T19:52:34.668Z,16.80
2022-12-27T19:55:12.580Z,15.10
2022-12-27T19:57:42.119Z,13.70
2022-12-27T20:00:18.293Z,15.90
2022-12-27T20:02:47.636Z,15.10
2022-12-27T20:05:17.862Z,12.90
2022-12-27T20:08:22.022Z,14.00
2022-12-27T20:10:52.391Z,16.30
2022-12-27T20:13:22.827Z,13.40
2022-12-27T20:15:55.737Z,12.50
2022-12-27T20:18:25.327Z,13.20
2022-12-27T20:20:54.752Z,14.20
2022-12-27T20:23:23.839Z,14.70
2022-12-27T20:25:52.844Z,14.10
2022-12-27T20:28:21.962Z,13.90
2022-12-27T20:30:50.915Z,14.10
2022-12-27T20:33:19.963Z,15.60
2022-12-27T20:35:59.406Z,14.60
2022-12-27T20:38:28.921Z,15.40
2022-12-27T20:41:09.066Z,14.60
2022-12-27T20:43:39.265Z,15.30
2022-12-27T20:46:11.797Z,15.90
2022-12-27T20:48:44.479Z,20.60
2022-12-27T20:51:24.131Z,23.90
2022-12-27T20:54:00.277Z,23.80
2022-12-27T20:56:32.276Z,29.90
2022-12-27T20:59:02.051Z,23.50
2022-12-27T21:01:31.121Z,23.20
2022-12-27T21:04:00.413Z,33.60
2022-12-27T21:06:29.706Z,19.70
2022-12-27T21:08:58.780Z,18.40
2022-12-27T21:11:32.602Z,22.70
2022-12-27T21:14:04.360Z,21.40
2022-12-27T21:16:35.460Z,22.20
2022-12-27T21:19:06.574Z,24.40
2022-12-27T21:21:38.322Z,19.80
2022-12-27T21:24:10.873Z,20.40
2022-12-27T21:26:41.407Z,25.60
2022-12-27T21:29:12.309Z,22.30
2022-12-27T21:31:44.038Z,21.70
2022-12-27T21:34:13.014Z,43.80
2022-12-27T21:36:42.339Z,33.30
2022-12-27T21:39:11.587Z,28.60
2022-12-27T21:41:41.538Z,23.40
2022-12-27T21:44:10.861Z,28.90
2022-12-27T21:46:42.422Z,28.20
2022-12-27T21:49:13.560Z,25.30
2022-12-27T21:51:44.072Z,23.90
2022-12-27T21:54:14.097Z,19.00
2022-12-27T21:56:43.343Z,18.50
2022-12-27T21:59:12.484Z,17.70
2022-12-27T22:01:51.434Z,17.20
2022-12-27T22:04:22.055Z,20.00
2022-12-27T22:06:51.309Z,17.90
2022-12-27T22:09:20.367Z,18.10
2022-12-27T22:11:50.309Z,16.40
2022-12-27T22:14:24.939Z,17.50
2022-12-27T22:16:54.769Z,18.40
2022-12-27T22:19:23.786Z,18.30
2022-12-27T22:21:52.744Z,14.60
2022-12-27T22:24:21.743Z,13.80
2022-12-27T22:26:50.768Z,12.70
2022-12-27T22:29:21.719Z,11.60
2022-12-27T22:31:50.857Z,11.30
2022-12-27T22:34:20.968Z,12.30
2022-12-27T22:36:52.180Z,11.70
2022-12-27T22:39:21.288Z,14.30
2022-12-27T22:41:51.234Z,12.10
2022-12-27T22:44:28.442Z,15.50
2022-12-27T22:50:21.378Z,14.30
2022-12-27T22:53:10.026Z,15.00
2022-12-27T22:56:22.181Z,14.20
2022-12-27T22:59:09.418Z,19.20
2022-12-27T23:01:41.551Z,30.10
2022-12-27T23:04:14.203Z,13.70
2022-12-27T23:06:45.499Z,12.50
2022-12-27T23:09:15.083Z,13.10
2022-12-27T23:11:44.801Z,12.50
2022-12-27T23:14:18.477Z,13.80
2022-12-27T23:16:50.171Z,13.50
2022-12-27T23:19:24.424Z,13.90
2022-12-27T23:21:56.125Z,13.70
2022-12-27T23:24:25.690Z,15.70
2022-12-27T23:26:55.268Z,16.30
2022-12-27T23:29:25.039Z,13.80
2022-12-27T23:31:55.857Z,15.30
2022-12-27T23:34:28.943Z,16.30
2022-12-27T23:37:02.161Z,16.30
2022-12-27T23:39:34.499Z,17.20
2022-12-27T23:42:04.272Z,18.40
2022-12-27T23:44:35.014Z,17.80
2022-12-27T23:47:08.405Z,21.90
2022-12-27T23:49:38.271Z,18.90
2022-12-27T23:52:07.987Z,18.50
2022-12-27T23:54:37.644Z,18.40
2022-12-27T23:57:22.345Z,17.00
2022-12-27T23:59:54.788Z,15.10
